Tolhuin, Argentina

10:41 PM ART on April 25, 2015 (GMT -0300)
Ushuaia International Malvine Island | | Change Station
CLOSE
Current Station
Airport
Location: Ushuaia,
Elevation: 69 ft
Nearby Weather Stations

Elev 69 ft 54.84 °S, 68.31 °W | Updated 41 minutes ago

Mostly Cloudy
Mostly Cloudy
43 °F
Feels Like 38 °F
N
9
Wind Variable Wind from WSW

Today
High -- | Low -- °F
--% Chance of Precip.
Yesterday
High -- | Low -- °F
Precip. -- in
8:37 AM 6:15 PM
Waxing Crescent, 51% visible
Pressure 29.86 in
Visibility 6.2 miles
Clouds Mostly Cloudy 1800 ft
Windchill 38 °F
Dew Point 37 °F
Humidity 81%
Rainfall 0.00 in
Snow Depth Not available.
UV 0 out of 12
Pollen Not available.
Air Quality Not available.
Flu Activity Not available.
METAR SAWH 260100Z 25008KT 9999 VCSH BKN018 06/03 Q1011

More Conditions Fewer Conditions

Pressure 29.86 in
Visibility 6.2 miles
Clouds Mostly Cloudy 1800 ft
Windchill 38 °F
Dew Point 37 °F
Humidity 81%
Rainfall 0.00 in
Snow Depth Not available.
UV 0 out of 12
Pollen Not available.
Air Quality Not available.
Flu Activity Not available.
METAR SAWH 260100Z 25008KT 9999 VCSH BKN018 06/03 Q1011

More Conditions Fewer Conditions

10-Day Weather Forecast

Almanac

Astronomy

Apr. 25, 2015 Rise Set
Actual Time
Civil Twilight
Nautical Twilight
Astronomical Twilight
Moon
Length of Visible Light
Length of Day
Tomorrow will be .
, % of the Moon is Illuminated

Today's Extremes

Country Highs Country Lows

Community

WunderPhotos

Upload Photos

1,816,893 photos uploaded!

WunderBlogs® & News

Nearby

Air Quality

  Air Quality AQ Index Pollutant
Not available.

Snow Depth

Station Depth Elevation

Earthquake Activity

City Distance Mag. Time & Date
Minimum magnitude displayed is 2.5.

Coastal Water Temperatures

Place Temperature

Stations

Nearby Weather Stations

Station Location Temp. Windchill Dew Point Humidity Wind Precip. Elev Updated Type